MET: Información y Pronóstico Aeronáutico

MET: Información y Pronóstico Aeronáutico

///////////////////////////////////////////////////////////////////////////////////////////////////////////////////////////////////////////////////////////////////////////////////////////////////////////////////////////////////////////////

18 DE ABRIL 2018

INFORMACION METEOROLOGICA AERONAUTICA (METAR) 12:00 UTC

Aeropuerto AEROPARQUE J. NEWBERY

18 - 12:00 METAR SABE 181200Z 35006KT CAVOK 22/18 Q1018 NOSIG =

Aeropuerto BAHIA BLANCA

18 - 12:00 METAR SAZB 181200Z 05006KT CAVOK 11/09 Q1019 =

Aeropuerto BARILOCHE

18 - 12:00 METAR SAZS 181200Z 00000KT 9999 FEW015 01/M02 Q1020 =

Aeropuerto EL CALAFATE

18 - 12:00 METAR SAWC 181200Z 25012KT 9999 FEW035 SCT080 14/03 Q0992 =

Aeropuerto EZEIZA

18 - 12:00 METAR SAEZ 181100Z VRB03KT CAVOK 20/18 Q1017 NOSIG =

Aeropuerto EL PALOMAR

18 - 12:00 METAR SADP 181200Z 02003KT CAVOK 21/17 Q1018 =

Aeropuerto IGUAZU/CATARATAS

18 - 12:00 METAR SARI 181200Z 05007KT CAVOK 22/19 Q1022 =

Aeropuerto JUJUY

18 - 12:00 METAR SASJ 181200Z 32005KT 9999 SCT030 16/14 Q1021 =

Aeropuerto MAR DEL PLATA

18 - 12:00 METAR SAZM 181200Z 14008KT 8000 -RA FEW003 BKN008 OVC045 16/15 Q1018 =

Aeropuerto MENDOZA

18 - 12:00 METAR SAME 181100Z 00000KT CAVOK 15/07 Q1018 =

Aeropuerto CHAPELCO

18 - 12:00 METAR SAZY 181200Z 27005KT CAVOK 01/00 Q1019 =

Aeropuerto COMODORO RIVADAVIA

18 - 12:00 METAR SAVC 181200Z 32017G28KT 270V360 CAVOK 16/05 Q1008 =

Aeropuerto CORDOBA

18 - 12:00 METAR SACO 181200Z 29003KT 9999 SCT030 SCT100 20/18 Q1018 =

Aeropuerto NEUQUEN

18 - 12:00 METAR SAZN 181200Z 29002KT CAVOK 05/M04 Q1019 =

Aeropuerto POSADAS

18 - 12:00 METAR SARP 181200Z 05006KT CAVOK 24/18 Q1021 =

Aeropuerto RESISTENCIA

18 - 12:00 METAR SARE 181200Z 05005KT 7000 NSC 23/19 Q1019 =

Aeropuerto RIO GRANDE

18 - 12:00 METAR SAWE 181200Z 36013KT 9999 FEW022 SCT080 08/06 Q0989 =

Aeropuerto ROSARIO

18 - 12:00 METAR SAAR 181200Z 34009KT CAVOK 23/20 Q1017 =

Aeropuerto SALTA

18 - 12:00 METAR SASA 181200Z 00000KT 7000 FEW018 14/13 Q1022 =

Aeropuerto SAN FERNANDO

18 - 12:00 METAR SADF 181200Z 32006KT CAVOK 21/17 Q1018 =

Aeropuerto SANTA ROSA

18 - 12:00 METAR SAZR 181200Z 16008KT CAVOK 14/11 Q1018 =

Aeropuerto TRELEW

18 - 12:00 METAR SAVT 181200Z 29005KT CAVOK 08/M01 Q1015 =

Aeropuerto TUCUMAN

18 - 12:00 METAR SANT 181200Z 00000KT CAVOK 21/17 Q1017 =

Aeropuerto USHUAIA

18 - 12:00 METAR SAWH 181200Z 36018KT 9999 SCT040 BKN080 10/01 Q0984 =

 

PRONOSTICO DE AERODROMO (TAF) 11:00 UTC

 

Estación AEROPARQUE J. NEWBERY

18 - 11:00 TAF SABE 181100Z 1812/1912 32005KT CAVOK TX26/1818Z TN22/1910Z BECMG 1816/1818 VRB03KT 9999 SCT040 SCT100 BECMG 1822/1901 09010KT CAVOK BECMG 1906/1908 36010KT BKN030 =

Estación BAHIA BLANCA

18 - 11:00 TAF SAZB 181100Z 1812/1912 05010KT CAVOK TX23/1818Z TN12/1909Z BECMG 1816/1818 16005KT BECMG 1904/1906 05003KT 0600 BCFG NSC =

Estación BARILOCHE

18 - 11:00 TAF SAZS 181100Z 1812/1912 18005KT 9999 SCT015 TX14/1819Z TN00/1812Z BECMG 1813/1815 29015KT CAVOK BECMG 1822/1901 29010KT BKN015 =

Estación EL CALAFATE

18 - 11:00 TAF SAWC 181100Z 1812/1912 29015G30KT 9999 FEW035 TX17/1819Z TN05/1911Z BECMG 1821/1823 23010KT BECMG 1903/1905 18010KT 4000 SHRA SCT020 BKN045 OVC070 =

Estación EZEIZA

18 - 11:00 TAF SAEZ 181100Z 1812/1912 20005KT 9999 SCT020 BKN100 TX28/1818Z TN19/1909Z TEMPO 1818/1823 7000 SHRA SCT020 FEW030TCU BKN050 BECMG 1823/1901 09010KT 5000 BR SCT015 BKN100 =

Estación EL PALOMAR

18 - 11:00 TAF SADP 181100Z 1812/1912 VRB03KT 9999 SCT025 BKN100 TX28/1818Z TN19/1909Z TEMPO 1817/1822 7000 SHRA SCT020 FEW030TCU BKN050 BECMG 1823/1901 09010KT 5000 BR SCT015 BKN100 =

Estación IGUAZU/CATARATAS

18 - 11:00 TAF SARI 181100Z 1812/1912 VRB03KT CAVOK TX30/1818Z TN19/1909Z BECMG 1815/1816 FEW025 =

Estación JUJUY

18 - 11:00 TAF SASJ 181100Z 1812/1912 32010KT 8000 SCT015 OVC030 TX26/1819Z TN16/1911Z TEMPO 1809/1812 5000 BR DZ BKN015 BECMG 1814/1816 07010KT 9999 SCT030 =

Estación MAR DEL PLATA

18 - 11:00 SAZM 181100Z 1812/1912 14005KT 4000 RA SCT010 BKN025 TX19/1818Z TN10/1910Z BECMG 1815/1818 09010KT 9999 SCT030 BECMG 1903/1906 02010KT 8000 SCT010 SCT030 =

Estación MENDOZA

18 - 11:00 TAF SAME 181100Z 1812/1912 14005KT 9999 SCT040 TX22/1819Z TN10/1911Z =

Estación CHAPELCO

18 - 11:00 TAF SAZY 181100Z 1812/1912 32010KT CAVOK TX18/1819Z TN05/1910Z BECMG 1816/1818 25015G25KT BECMG 1905/1907 27010KT =

Estación COMODORO RIVADAVIA

18 - 11:00 TAF SAVC 181100Z 1812/1912 29025G40KT 9999 FEW035 SCT070 TX25/1819Z TN16/1911Z BECMG 1816/1818 29030G50KT PROB40 TEMPO 1906/1908 32035G60KT =

Estación CORDOBA

18 - 11:00 TAF SACO 181100Z 1812/1912 05010KT CAVOK TX32/1819Z TN19/1911Z BECMG 1814/1816 02020KT 9999 SCT030 BECMG 1900/1903 340005KT 9999 SCT020 =

Estación NEUQUEN

18 - 11:00 TAF SAZN 181100Z 1812/1912 VRB03KT CAVOK TX22/1818Z TN04/1909Z =

Estación POSADAS

18 - 11:00 TAF SARP 181100Z 1812/1912 05005KT CAVOK TX30/1818Z TN20/1909Z BECMG 1815/1816 FEW025 =

Estación RESISTENCIA

18 - 11:00 TAF SARE 181100Z 1812/1912 05005KT CAVOK TX33/1818Z TN20/1909Z BECMG 1815/1816 FEW025 =

Estación RIO GRANDE

18 - 11:00 TAF SAWE 181100Z 1812/1912 36010KT CAVOK TX12/1819Z TN02/1911Z BECMG 1813/1815 29025G45KT 9000 SHRA SCT030 SCT040TCU OVC050 BECMG 1823/1901 29015KT 9999 -DZ SCT030 BKN060 =

Estación ROSARIO

18 - 11:00 TAF SAAR 181100Z 1812/1912 34010KT CAVOK TX31/1818Z TN20/1908Z BECMG 1818/1821 07005KT SCT030 BKN100 BECMG 1905/1907 02005KT CAVOK =

Estación SALTA

18 - 11:00 TAF SASA 181100Z 1812/1912 VRB03KT 5000 BR SCT015 TX26/1819Z TN14/1911Z BECMG 1814/1816 05010KT 9999 SCT020 TEMPO 1909/1912 VRB03KT 1500 BR SCT010 =

Estación SAN FERNANDO

18 - 11:00 TAF SADF 181100Z 1812/1912 32005KT CAVOK TX27/1818Z TN20/1910Z BECMG 1813/1815 9999 SCT020 BKN100 BECMG 1817/1819 VRB03KT TEMPO 1817/1823 8000 SHRA SCT020 FEW040CB BKN050 BECMG 1824/1902 09010KT BECMG 1905/1907 36010KT =

Estación SANTA ROSA

18 - 11:00 TAF SAZR 181100Z 1812/1912 16010KT 9999 BKN030 TX25/1818Z TN14/1909Z TEMPO 1815/1821 7000 RA SCT015 OVC050 BECMG 1902/1904 VRB03KT 0800 DZ BCFG BKN006 OVC020 =

Estación TRELEW

18 - 11:00 TAF SAVT 181100Z 1812/1912 32010KT CAVOK TX27/1819Z TN16/1911Z =

Estación TUCUMAN

18 - 11:00 TAF SANT 181100Z 1812/1912 36010KT CAVOK TX32/1819Z TN19/1911Z BECMG 1814/1816 05010KT 9999 SCT030 BECMG 1900/1903 36005KT CAVOK =

Estación USHUAIA

18 - 11:00 TAF SAWH 181100Z 1812/1912 02015KT 9999 SCT030 BKN060 TX11/1819Z TN00/1911Z BECMG 1813/1815 34025G45KT 6000 SHRA SCT030 SCT040TCU OVC050 BECMG 1823/1901 36010KT 9999 NSW SCT030 =